Time;durP1;ratioP1;P1;durP2;ratioP2;P2;SDS_P1;SDS_P2;PMS_P1;PMS_P2;Temp;Humidity;BMP_temperature;BMP_pressure;BME280_temperature;BME280_humidity;BME280_pressure;Samples;Min_cycle;Max_cycle;Signal;HPM_P1;HPM_P2
2021/06/22 00:02:23;;;;;;;3.80;1.50;;;;;;;22.41;100.00;100128.70;1802245;78;22411;-68
2021/06/22 00:04:50;;;;;;;6.97;1.63;;;;;;;22.44;100.00;100132.70;1804110;78;21143;-67
2021/06/22 00:07:19;;;;;;;6.27;1.70;;;;;;;22.47;100.00;100132.98;1789389;77;21386;-67
2021/06/22 00:09:45;;;;;;;5.07;1.57;;;;;;;22.49;100.00;100134.02;1795168;78;21053;-65
2021/06/22 00:12:14;;;;;;;6.10;1.70;;;;;;;22.46;100.00;100139.86;1793369;78;20975;-64
2021/06/22 00:14:42;;;;;;;6.50;1.73;;;;;;;22.35;100.00;100141.73;1794709;77;20963;-66
2021/06/22 00:17:10;;;;;;;6.53;1.43;;;;;;;22.38;100.00;100130.56;1805363;78;21485;-67
2021/06/22 00:19:37;;;;;;;7.70;1.77;;;;;;;22.37;100.00;100126.85;1806263;77;20935;-60
2021/06/22 00:22:04;;;;;;;3.80;1.43;;;;;;;22.32;100.00;100124.99;1789683;77;21874;-67
2021/06/22 00:24:31;;;;;;;5.80;1.80;;;;;;;22.34;100.00;100120.99;1806379;78;20915;-65
2021/06/22 00:26:57;;;;;;;5.37;1.97;;;;;;;22.43;100.00;100127.13;1789453;78;20972;-66
2021/06/22 00:29:24;;;;;;;5.77;1.90;;;;;;;22.46;100.00;100125.25;1800802;77;20897;-66
2021/06/22 00:31:51;;;;;;;7.33;1.63;;;;;;;22.35;100.00;100124.47;1794809;78;20941;-60
2021/06/22 00:34:18;;;;;;;5.37;1.60;;;;;;;22.29;100.00;100127.63;1802538;78;21481;-66
2021/06/22 00:36:45;;;;;;;6.33;1.23;;;;;;;22.38;100.00;100121.27;1795322;78;20964;-67
2021/06/22 00:39:11;;;;;;;5.07;1.43;;;;;;;22.40;100.00;100119.16;1791162;78;20972;-61
2021/06/22 00:41:38;;;;;;;5.97;2.20;;;;;;;22.37;100.00;100125.52;1805699;77;20979;-60
2021/06/22 00:44:06;;;;;;;6.07;1.90;;;;;;;22.33;100.00;100129.23;1792946;77;21058;-67
2021/06/22 00:46:33;;;;;;;8.00;1.80;;;;;;;22.34;100.00;100123.65;1805825;78;21155;-67
2021/06/22 00:49:02;;;;;;;5.10;1.90;;;;;;;22.30;100.00;100127.10;1776140;78;20981;-61
2021/06/22 00:51:28;;;;;;;5.80;1.60;;;;;;;22.20;100.00;100130.55;1798129;78;20881;-67
2021/06/22 00:53:55;;;;;;;6.83;1.40;;;;;;;22.33;100.00;100123.92;1791603;78;21082;-66
2021/06/22 00:56:23;;;;;;;6.27;1.47;;;;;;;21.96;100.00;100135.49;1793708;78;21084;-67
2021/06/22 00:58:51;;;;;;;5.33;1.40;;;;;;;21.96;100.00;100137.35;1797905;78;21149;-67
2021/06/22 01:01:19;;;;;;;6.90;2.03;;;;;;;22.01;100.00;100137.36;1794380;78;20853;-65
2021/06/22 01:03:47;;;;;;;10.03;2.23;;;;;;;21.97;100.00;100146.91;1797519;78;21050;-61
2021/06/22 01:06:13;;;;;;;6.43;1.90;;;;;;;21.92;100.00;100144.24;1787426;78;22333;-67
2021/06/22 01:08:43;;;;;;;4.77;1.43;;;;;;;21.83;100.00;100145.28;1789551;78;20987;-67
2021/06/22 01:11:10;;;;;;;4.10;1.60;;;;;;;21.75;100.00;100145.79;1782087;78;21096;-63
2021/06/22 01:13:37;;;;;;;8.57;1.70;;;;;;;21.66;100.00;100146.80;1791540;78;21037;-60
2021/06/22 01:16:05;;;;;;;5.70;1.80;;;;;;;21.77;100.00;100148.96;1783072;78;21390;-67
2021/06/22 01:18:33;;;;;;;4.47;1.50;;;;;;;21.73;100.00;100149.22;1792561;78;21038;-67
2021/06/22 01:21:18;;;;;;;4.13;1.73;;;;;;;21.76;100.00;100148.70;1784205;78;20859;-66
2021/06/22 01:23:46;;;;;;;3.33;1.40;;;;;;;21.70;100.00;100147.08;1787570;78;21151;-69
2021/06/22 01:26:13;;;;;;;7.63;1.80;;;;;;;21.72;100.00;100150.28;1786121;78;20986;-68
2021/06/22 01:28:42;;;;;;;5.57;1.43;;;;;;;21.76;100.00;100151.36;1791001;78;21072;-69
2021/06/22 01:31:13;;;;;;;4.33;2.07;;;;;;;21.75;100.00;100153.22;1794205;78;20910;-63
2021/06/22 01:33:46;;;;;;;3.87;1.50;;;;;;;21.74;100.00;100150.80;1755253;78;21534;-71
2021/06/22 01:36:14;;;;;;;7.27;1.83;;;;;;;21.65;100.00;100153.70;1788810;78;21183;-70
2021/06/22 01:38:41;;;;;;;3.37;1.40;;;;;;;21.65;100.00;100157.14;1783038;78;21023;-70
2021/06/22 01:41:09;;;;;;;4.67;1.80;;;;;;;21.67;100.00;100155.55;1789524;78;20986;-69
2021/06/22 01:43:36;;;;;;;10.60;2.13;;;;;;;21.74;100.00;100156.11;1785585;78;20928;-70
2021/06/22 01:46:05;;;;;;;4.97;1.70;;;;;;;21.70;100.00;100155.83;1795600;78;20991;-70
2021/06/22 01:48:31;;;;;;;8.77;1.90;;;;;;;21.68;100.00;100159.81;1795506;78;21124;-70
2021/06/22 01:50:58;;;;;;;5.00;2.13;;;;;;;21.62;100.00;100164.28;1791335;78;20911;-70
2021/06/22 01:53:25;;;;;;;7.03;1.70;;;;;;;21.54;100.00;100159.48;1792208;78;21011;-68
2021/06/22 01:55:53;;;;;;;5.83;1.90;;;;;;;21.52;100.00;100169.56;1793511;78;21560;-70
2021/06/22 01:58:21;;;;;;;4.13;1.50;;;;;;;21.50;100.00;100165.03;1795348;78;20994;-70
2021/06/22 02:00:53;;;;;;;5.40;1.60;;;;;;;21.54;100.00;100168.22;1775493;78;22094;-68
2021/06/22 02:03:21;;;;;;;4.23;1.60;;;;;;;21.58;100.00;100171.95;1783726;78;21055;-68
2021/06/22 02:05:49;;;;;;;6.13;2.00;;;;;;;21.61;100.00;100164.02;1789457;78;21485;-69
2021/06/22 02:08:16;;;;;;;6.47;2.47;;;;;;;21.59;100.00;100169.59;1801992;78;21532;-68
2021/06/22 02:10:43;;;;;;;7.10;1.90;;;;;;;21.62;100.00;100169.59;1795763;77;20988;-66
2021/06/22 02:13:12;;;;;;;8.57;2.17;;;;;;;21.66;100.00;100172.52;1788662;77;21783;-66
2021/06/22 02:15:42;;;;;;;6.40;2.33;;;;;;;21.68;100.00;100173.08;1783841;77;21526;-68
2021/06/22 02:18:10;;;;;;;5.90;2.43;;;;;;;21.70;100.00;100161.66;1806085;77;21442;-67
2021/06/22 02:20:38;;;;;;;6.83;2.77;;;;;;;21.72;100.00;100163.55;1790787;77;21053;-68
2021/06/22 02:23:05;;;;;;;4.60;2.30;;;;;;;21.80;100.00;100166.48;1806042;77;21037;-67
2021/06/22 02:25:34;;;;;;;9.03;2.20;;;;;;;21.92;100.00;100168.12;1786514;78;21065;-69
2021/06/22 02:28:06;;;;;;;5.03;1.87;;;;;;;21.89;100.00;100173.95;1782633;79;21666;-71
2021/06/22 02:30:33;;;;;;;7.50;2.27;;;;;;;21.91;100.00;100176.63;1788274;77;21002;-63
2021/06/22 02:33:00;;;;;;;12.47;3.03;;;;;;;21.94;100.00;100188.05;1805929;78;21361;-70
2021/06/22 02:35:27;;;;;;;7.17;2.10;;;;;;;22.01;100.00;100192.59;1805871;78;20931;-63
2021/06/22 02:37:55;;;;;;;6.57;2.03;;;;;;;22.04;100.00;100181.97;1790821;78;21125;-70
2021/06/22 02:40:24;;;;;;;8.73;2.17;;;;;;;22.08;100.00;100195.77;1763511;78;21468;-69
2021/06/22 02:42:51;;;;;;;8.07;2.23;;;;;;;22.04;100.00;100197.36;1791683;78;20954;-70
2021/06/22 02:45:19;;;;;;;5.73;2.13;;;;;;;22.09;100.00;100192.08;1804678;77;21037;-70
2021/06/22 02:47:47;;;;;;;8.07;2.00;;;;;;;22.13;100.00;100195.55;1805417;77;21059;-70
2021/06/22 02:50:15;;;;;;;10.13;2.10;;;;;;;22.16;100.00;100191.05;1805639;77;23158;-69
2021/06/22 02:52:41;;;;;;;7.83;2.10;;;;;;;22.27;100.00;100195.33;1797284;77;21087;-63
2021/06/22 02:55:18;;;;;;;5.80;2.10;;;;;;;22.41;100.00;100194.31;1781673;78;21375;-70
2021/06/22 02:57:40;;;;;;;6.53;1.77;;;;;;;22.83;100.00;100188.23;1758845;79;21078;-70
2021/06/22 03:00:15;;;;;;;6.73;2.20;;;;;;;23.49;99.69;100182.63;1788847;77;21378;31
2021/06/22 03:02:42;;;;;;;5.57;1.60;;;;;;;23.99;92.96;100188.84;1688766;82;22189;-70
2021/06/22 03:05:10;;;;;;;8.50;2.17;;;;;;;24.20;87.49;100188.98;1725150;80;21082;-68
2021/06/22 03:07:37;;;;;;;8.87;1.90;;;;;;;24.48;83.72;100195.52;1730885;80;20999;-70
2021/06/22 03:10:09;;;;;;;12.50;2.07;;;;;;;24.81;80.25;100199.00;1729818;81;21024;-70
2021/06/22 03:12:35;;;;;;;11.48;2.27;;;;;;;25.29;77.55;100199.95;1705497;81;21559;-63
2021/06/22 03:15:12;;;;;;;9.30;2.17;;;;;;;25.90;71.05;100204.62;1725539;80;21952;-63
2021/06/22 03:17:40;;;;;;;6.97;2.22;;;;;;;26.42;64.50;100205.53;1727025;80;21093;-71
2021/06/22 03:20:09;;;;;;;7.27;1.73;;;;;;;26.76;60.14;100204.52;1724480;80;21647;-71
2021/06/22 03:22:37;;;;;;;7.53;2.30;;;;;;;26.93;59.45;100206.13;1722598;80;21046;-63
2021/06/22 03:25:06;;;;;;;9.97;2.37;;;;;;;27.20;57.82;100199.27;1722921;80;21296;-70
2021/06/22 03:27:33;;;;;;;8.47;2.63;;;;;;;27.20;55.90;100205.95;1722025;80;21953;-71
2021/06/22 03:30:10;;;;;;;5.57;2.07;;;;;;;26.87;55.10;100209.16;1726497;80;21054;-69
2021/06/22 03:32:37;;;;;;;9.60;3.07;;;;;;;26.66;56.52;100206.01;1730734;80;21047;-71
2021/06/22 03:35:06;;;;;;;9.00;2.27;;;;;;;26.67;57.12;100203.61;1749843;80;21014;-68
2021/06/22 03:37:33;;;;;;;8.73;3.50;;;;;;;26.73;55.94;100196.28;1754634;80;21079;-68
2021/06/22 03:40:05;;;;;;;6.73;2.70;;;;;;;26.90;57.16;100204.02;1755085;81;21101;-68
2021/06/22 03:42:29;;;;;;;4.83;2.17;;;;;;;27.27;54.36;100192.95;1727117;82;20981;-67
2021/06/22 03:44:56;;;;;;;10.03;2.77;;;;;;;27.32;52.95;100197.45;1725622;81;21977;-68
2021/06/22 03:47:24;;;;;;;7.27;2.30;;;;;;;27.57;52.54;100192.92;1725729;81;20931;-69
2021/06/22 03:49:51;;;;;;;9.43;2.27;;;;;;;27.84;51.17;100200.72;1731396;81;20937;-68
2021/06/22 03:52:18;;;;;;;10.95;2.55;;;;;;;28.03;50.18;100209.42;1730544;81;21121;-71
2021/06/22 03:54:45;;;;;;;6.78;2.52;;;;;;;28.28;49.83;100205.41;1706110;81;20931;-68
2021/06/22 03:57:13;;;;;;;10.10;3.62;;;;;;;28.37;47.09;100201.48;1721517;82;20947;-61
2021/06/22 03:59:41;;;;;;;9.55;2.75;;;;;;;28.59;47.04;100198.02;1721315;82;20934;-71
2021/06/22 04:02:08;;;;;;;8.23;2.87;;;;;;;28.90;45.56;100205.32;1714648;81;20987;-69
2021/06/22 04:04:34;;;;;;;9.30;2.87;;;;;;;29.16;45.49;100211.66;1728713;81;21051;-61
2021/06/22 04:07:03;;;;;;;7.75;2.20;;;;;;;29.56;44.54;100209.78;1728177;82;21603;-70
2021/06/22 04:09:31;;;;;;;10.38;2.55;;;;;;;29.91;43.10;100217.95;1724962;81;21543;-72
2021/06/22 04:11:58;;;;;;;7.97;2.60;;;;;;;30.16;41.98;100219.66;1738014;80;21838;-71
2021/06/22 04:14:25;;;;;;;13.35;2.87;;;;;;;30.32;41.69;100215.98;1742187;81;20989;-70
2021/06/22 04:16:52;;;;;;;10.20;2.87;;;;;;;30.45;40.58;100222.52;1744097;80;21141;-71
2021/06/22 04:19:20;;;;;;;8.30;2.85;;;;;;;30.52;40.14;100231.47;1742981;80;20980;-62
2021/06/22 04:21:48;;;;;;;6.90;2.42;;;;;;;30.59;40.63;100227.75;1742733;81;20976;-72
2021/06/22 04:24:17;;;;;;;14.50;3.95;;;;;;;30.78;39.75;100223.41;1747637;80;21485;-70
2021/06/22 04:26:44;;;;;;;11.40;2.87;;;;;;;30.88;38.56;100222.30;1714538;82;21003;-67
2021/06/22 04:29:11;;;;;;;8.88;2.45;;;;;;;30.86;39.02;100216.42;1708486;82;21219;-68
2021/06/22 04:34:10;;;;;;;14.23;3.40;;;;;;;31.11;39.04;100220.17;1743182;80;21451;-70
2021/06/22 04:36:37;;;;;;;8.65;2.92;;;;;;;31.19;38.61;100218.00;1753240;80;20971;-62
2021/06/22 04:39:04;;;;;;;14.03;3.75;;;;;;;31.24;38.91;100232.07;1751305;80;20963;-69
2021/06/22 04:41:32;;;;;;;8.33;3.20;;;;;;;31.38;38.71;100222.47;1742801;81;21105;-62
2021/06/22 04:43:58;;;;;;;9.48;2.95;;;;;;;31.56;38.25;100228.58;1745759;80;20995;-68
2021/06/22 04:46:25;;;;;;;9.00;3.22;;;;;;;31.66;38.66;100227.41;1741856;81;20888;-61
2021/06/22 04:48:51;;;;;;;6.33;2.90;;;;;;;31.95;37.91;100223.95;1755504;80;21894;-67
2021/06/22 04:51:17;;;;;;;15.18;3.60;;;;;;;32.07;38.37;100221.32;1755589;80;20920;-68
2021/06/22 04:53:44;;;;;;;7.47;2.45;;;;;;;32.24;36.54;100223.11;1764954;80;21101;-69
2021/06/22 04:56:11;;;;;;;7.85;2.55;;;;;;;32.22;36.23;100224.77;1756848;80;20963;-68
2021/06/22 04:58:37;;;;;;;10.90;2.87;;;;;;;32.15;37.28;100232.59;1753112;80;20994;-67
2021/06/22 05:01:04;;;;;;;6.65;3.00;;;;;;;32.26;37.56;100237.61;1731606;81;21650;-73
2021/06/22 05:03:32;;;;;;;8.98;3.00;;;;;;;32.40;37.18;100230.07;1744553;81;20889;-70
2021/06/22 05:05:59;;;;;;;9.48;2.90;;;;;;;32.57;36.88;100227.77;1729804;81;21132;-62
2021/06/22 05:08:26;;;;;;;14.40;2.60;;;;;;;32.80;36.77;100227.62;1751000;81;21001;-68
2021/06/22 05:10:53;;;;;;;10.68;2.87;;;;;;;32.99;36.76;100239.28;1750774;80;21032;-66
2021/06/22 05:13:21;;;;;;;8.78;2.65;;;;;;;33.24;35.25;100233.37;1754845;81;21354;-71
2021/06/22 05:15:47;;;;;;;8.25;3.62;;;;;;;33.30;34.96;100244.20;1754645;81;20945;-70
2021/06/22 05:18:14;;;;;;;12.20;3.60;;;;;;;33.29;35.49;100241.25;1753925;81;21478;-62
2021/06/22 05:20:41;;;;;;;10.05;2.90;;;;;;;33.30;35.36;100239.33;1753030;81;20980;-63
2021/06/22 05:23:08;;;;;;;8.10;2.52;;;;;;;33.58;35.02;100246.27;1754562;81;20988;-69
2021/06/22 05:25:34;;;;;;;10.00;3.17;;;;;;;33.59;35.15;100245.91;1754766;81;21087;-71
2021/06/22 05:28:01;;;;;;;11.28;2.65;;;;;;;33.77;35.69;100241.63;1754899;81;21012;-70
2021/06/22 05:30:28;;;;;;;8.28;2.77;;;;;;;34.12;35.80;100240.02;1753652;81;21788;-70
2021/06/22 05:32:54;;;;;;;10.38;2.70;;;;;;;34.39;34.63;100239.03;1754130;81;21379;-67
2021/06/22 05:35:21;;;;;;;11.90;3.00;;;;;;;34.61;34.26;100239.88;1753921;81;21420;-70
2021/06/22 05:37:48;;;;;;;9.60;3.10;;;;;;;34.69;33.71;100241.42;1754862;81;20999;-69
2021/06/22 05:40:15;;;;;;;13.48;3.00;;;;;;;34.64;33.62;100237.63;1754386;81;21470;-64
2021/06/22 05:42:41;;;;;;;8.25;2.50;;;;;;;34.71;34.05;100240.52;1754649;81;21138;-62
2021/06/22 05:45:09;;;;;;;9.80;2.87;;;;;;;34.71;33.46;100235.89;1754475;81;21050;-68
2021/06/22 05:47:35;;;;;;;6.80;2.60;;;;;;;34.71;32.81;100244.59;1754429;81;21526;-68
2021/06/22 05:50:04;;;;;;;10.53;2.67;;;;;;;34.40;32.77;100246.04;1754786;81;20984;-68
2021/06/22 05:52:30;;;;;;;8.33;2.50;;;;;;;34.48;33.68;100246.45;1754259;81;21194;-61
2021/06/22 05:54:57;;;;;;;11.83;3.25;;;;;;;34.79;33.51;100240.93;1754792;81;22233;-70
2021/06/22 05:57:24;;;;;;;8.15;2.47;;;;;;;35.04;33.35;100238.34;1754465;81;21518;-70
2021/06/22 05:59:51;;;;;;;14.90;3.80;;;;;;;35.21;33.66;100241.26;1760498;80;21507;-69
2021/06/22 06:02:18;;;;;;;10.05;2.92;;;;;;;35.27;32.71;100236.34;1755815;80;20969;-69
2021/06/22 06:04:44;;;;;;;6.53;2.80;;;;;;;35.09;32.29;100239.99;1757113;80;20964;-70
2021/06/22 06:07:11;;;;;;;10.03;2.45;;;;;;;34.85;33.19;100237.63;1756653;81;22128;-70
2021/06/22 06:09:38;;;;;;;9.50;3.08;;;;;;;34.83;33.36;100241.81;1759877;80;21800;-71
2021/06/22 06:12:06;;;;;;;7.85;2.70;;;;;;;34.96;34.23;100233.81;1747105;80;21012;-69
2021/06/22 06:14:32;;;;;;;8.03;2.15;;;;;;;35.19;33.87;100240.02;1748735;81;21035;-67
2021/06/22 06:17:00;;;;;;;11.38;2.85;;;;;;;35.34;33.39;100241.95;1738240;81;22177;-72
2021/06/22 06:19:26;;;;;;;8.83;2.27;;;;;;;35.47;33.45;100247.50;1753885;81;21145;-69
2021/06/22 06:21:53;;;;;;;7.97;2.92;;;;;;;35.38;32.32;100241.45;1755643;81;20972;-70
2021/06/22 06:24:21;;;;;;;11.63;2.47;;;;;;;35.43;32.99;100235.01;1753665;80;21397;-69
2021/06/22 06:26:56;;;;;;;7.03;2.95;;;;;;;35.63;33.33;100242.66;1755064;81;20925;-62
2021/06/22 06:29:29;;;;;;;6.83;2.42;;;;;;;35.80;32.61;100240.90;1754808;81;21317;-68
2021/06/22 06:31:48;;;;;;;9.88;2.50;;;;;;;35.83;32.38;100241.55;1741641;80;21978;-70
2021/06/22 06:34:14;;;;;;;8.13;2.10;;;;;;;35.73;31.21;100228.56;1753762;80;21102;-71
2021/06/22 06:36:41;;;;;;;9.53;2.30;;;;;;;35.66;29.31;100234.60;1761815;80;21098;-65
2021/06/22 06:39:08;;;;;;;9.55;2.85;;;;;;;35.52;29.80;100235.05;1739623;80;20893;-71
2021/06/22 06:41:34;;;;;;;8.08;2.77;;;;;;;35.46;30.87;100240.52;1754488;81;20995;-72
2021/06/22 06:44:01;;;;;;;6.90;1.75;;;;;;;35.61;32.04;100242.99;1756375;80;22613;-72
2021/06/22 06:46:28;;;;;;;4.80;2.33;;;;;;;35.77;29.78;100238.92;1765685;80;21030;-70
2021/06/22 06:48:55;;;;;;;7.72;2.35;;;;;;;35.90;28.60;100243.07;1764860;79;21374;-68
2021/06/22 06:51:21;;;;;;;8.00;2.47;;;;;;;35.82;28.84;100244.84;1756809;80;22310;-70
2021/06/22 06:53:49;;;;;;;6.28;2.00;;;;;;;35.72;29.10;100231.81;1767335;79;20975;-73
2021/06/22 06:56:16;;;;;;;7.28;1.85;;;;;;;35.58;28.73;100242.36;1711234;82;21186;-74
2021/06/22 06:58:42;;;;;;;4.35;1.85;;;;;;;35.34;28.99;100238.66;1756583;80;21600;-73
2021/06/22 07:01:09;;;;;;;5.10;1.92;;;;;;;35.11;30.19;100244.48;1764662;80;22211;-64
2021/06/22 07:03:37;;;;;;;7.97;2.45;;;;;;;34.96;30.42;100243.87;1761362;79;21215;-73
2021/06/22 07:06:04;;;;;;;9.53;2.50;;;;;;;34.81;31.15;100247.55;1747809;80;21149;-68
2021/06/22 07:08:31;;;;;;;3.90;1.95;;;;;;;34.80;31.06;100250.63;1706432;82;21178;-74
2021/06/22 07:10:58;;;;;;;4.35;1.90;;;;;;;34.84;30.56;100237.95;1707588;82;21093;-67
2021/06/22 07:13:26;;;;;;;7.53;2.27;;;;;;;34.94;29.82;100259.12;1702299;82;20966;-72
2021/06/22 07:15:54;;;;;;;9.90;2.20;;;;;;;34.87;29.91;100244.04;1749554;80;21074;-70
2021/06/22 07:18:20;;;;;;;4.92;1.80;;;;;;;34.89;30.43;100245.03;1725081;82;20996;-73
2021/06/22 07:20:47;;;;;;;7.33;2.12;;;;;;;34.88;31.21;100242.11;1715383;82;21151;-73
2021/06/22 07:23:15;;;;;;;7.53;2.05;;;;;;;35.06;29.30;100245.53;1752398;80;21022;-63
2021/06/22 07:25:41;;;;;;;6.25;2.15;;;;;;;35.09;28.83;100244.06;1735088;80;21056;-71
2021/06/22 07:28:08;;;;;;;5.67;2.05;;;;;;;34.97;28.97;100246.25;1737148;80;21085;-73
2021/06/22 07:30:35;;;;;;;6.28;2.05;;;;;;;34.98;30.33;100249.17;1751704;80;20998;-71
2021/06/22 07:33:01;;;;;;;5.72;2.05;;;;;;;35.04;29.39;100251.06;1751435;80;21131;-71
2021/06/22 07:35:32;;;;;;;4.67;2.00;;;;;;;35.12;30.64;100254.75;1746362;80;21455;-70
2021/06/22 07:38:00;;;;;;;6.00;2.25;;;;;;;35.38;30.07;100253.66;1734083;80;20986;-68
2021/06/22 07:40:27;;;;;;;7.58;2.12;;;;;;;35.39;28.97;100256.61;1760767;80;21109;-72
2021/06/22 07:42:54;;;;;;;4.78;1.62;;;;;;;35.42;27.77;100259.16;1753833;80;21003;-70
2021/06/22 07:45:21;;;;;;;7.45;1.77;;;;;;;35.27;27.12;100255.31;1715119;82;21110;-63
2021/06/22 07:47:48;;;;;;;5.70;1.77;;;;;;;35.05;27.86;100250.73;1710349;82;21382;-70
2021/06/22 07:50:15;;;;;;;7.17;1.77;;;;;;;35.03;27.33;100250.28;1746791;80;21961;-71
2021/06/22 07:52:42;;;;;;;6.47;2.10;;;;;;;34.99;27.40;100259.44;1716941;82;21544;-71
2021/06/22 07:55:13;;;;;;;9.38;1.60;;;;;;;34.75;26.47;100244.11;1751016;80;21568;-69
2021/06/22 07:57:38;;;;;;;6.45;1.75;;;;;;;34.47;26.47;100263.81;1752961;80;21135;-62
2021/06/22 08:00:12;;;;;;;11.97;2.10;;;;;;;34.31;27.56;100250.22;1753359;80;21685;-70
2021/06/22 08:02:40;;;;;;;5.47;2.22;;;;;;;34.25;27.60;100249.47;1738666;80;21054;-68
2021/06/22 08:05:08;;;;;;;6.08;2.10;;;;;;;34.19;27.29;100265.14;1734714;80;21106;-70
2021/06/22 08:07:35;;;;;;;5.87;2.30;;;;;;;34.17;28.62;100251.16;1725897;81;21146;-68
2021/06/22 08:10:02;;;;;;;5.55;1.92;;;;;;;34.30;28.69;100244.59;1754456;80;21134;-67
2021/06/22 08:12:28;;;;;;;6.42;1.90;;;;;;;34.48;28.54;100253.80;1753459;81;21085;-68
2021/06/22 08:14:55;;;;;;;5.65;2.05;;;;;;;34.61;29.14;100260.75;1756651;81;21008;-69
2021/06/22 08:17:21;;;;;;;5.08;1.82;;;;;;;34.79;28.23;100241.71;1756833;80;20983;-68
2021/06/22 08:19:48;;;;;;;5.03;2.37;;;;;;;34.79;29.08;100250.41;1754996;80;21075;-63
2021/06/22 08:22:15;;;;;;;6.78;2.58;;;;;;;34.79;29.44;100243.64;1755539;80;21121;-69
2021/06/22 08:24:41;;;;;;;6.45;2.08;;;;;;;34.85;29.80;100243.59;1755419;80;21043;-68
2021/06/22 08:27:08;;;;;;;7.30;2.05;;;;;;;35.00;29.54;100246.12;1756384;80;22322;-67
2021/06/22 08:29:35;;;;;;;5.65;2.10;;;;;;;35.06;29.85;100263.71;1756156;81;21047;-64
2021/06/22 08:32:02;;;;;;;4.28;1.70;;;;;;;35.09;29.17;100248.91;1756414;80;21549;-70
2021/06/22 08:34:30;;;;;;;6.83;2.25;;;;;;;35.30;29.83;100245.14;1756965;80;21085;-70
2021/06/22 08:36:57;;;;;;;5.08;2.33;;;;;;;35.60;30.21;100243.36;1755518;80;20991;-71
2021/06/22 08:39:24;;;;;;;7.08;2.02;;;;;;;35.77;29.20;100255.19;1754910;80;21003;-64
2021/06/22 08:41:52;;;;;;;7.62;2.05;;;;;;;35.91;27.21;100247.34;1755295;80;21080;-67
2021/06/22 08:44:19;;;;;;;8.50;2.47;;;;;;;35.81;27.65;100247.34;1757582;80;21094;-71
2021/06/22 08:46:46;;;;;;;5.22;2.00;;;;;;;35.85;28.38;100246.64;1757443;80;21144;-72
2021/06/22 08:49:13;;;;;;;4.87;2.20;;;;;;;35.92;28.29;100254.37;1757285;80;21060;-70
2021/06/22 08:51:44;;;;;;;6.92;2.02;;;;;;;35.96;28.36;100248.44;1750319;80;20976;-65
2021/06/22 08:54:10;;;;;;;7.07;2.00;;;;;;;36.05;28.62;100243.62;1756656;80;21067;-74
2021/06/22 08:56:37;;;;;;;5.17;1.50;;;;;;;36.21;29.77;100248.20;1756854;80;21320;-71
2021/06/22 08:59:04;;;;;;;6.33;2.20;;;;;;;36.32;27.15;100237.56;1757461;80;21198;-72
2021/06/22 09:01:32;;;;;;;4.25;1.80;;;;;;;36.22;26.92;100241.65;1756196;80;20956;-65
2021/06/22 09:03:59;;;;;;;7.85;2.00;;;;;;;36.09;27.52;100237.48;1677605;83;21061;-69
2021/06/22 09:06:26;;;;;;;7.55;1.98;;;;;;;36.06;26.83;100254.68;1731104;80;21560;-73
2021/06/22 09:08:55;;;;;;;9.80;2.12;;;;;;;36.17;28.36;100245.41;1750440;80;21042;-68
2021/06/22 09:11:21;;;;;;;5.42;1.98;;;;;;;36.37;27.00;100241.34;1750501;80;21111;-68
2021/06/22 09:13:58;;;;;;;5.25;2.25;;;;;;;36.20;27.93;100237.14;1749309;80;20931;-67
2021/06/22 09:16:24;;;;;;;4.87;1.70;;;;;;;36.26;27.89;100231.65;1750599;80;21957;-66
2021/06/22 09:18:51;;;;;;;7.80;2.00;;;;;;;36.42;27.93;100236.42;1750228;80;21037;-69
2021/06/22 09:21:24;;;;;;;5.83;2.27;;;;;;;36.58;28.91;100226.86;1749812;80;20974;-67
2021/06/22 09:23:55;;;;;;;6.95;1.98;;;;;;;36.82;28.10;100227.09;1749064;80;21228;-69
2021/06/22 09:26:25;;;;;;;;;;;;;;;36.78;26.85;100235.17;1752658;80;21018;-68
2021/06/22 09:28:55;;;;;;;5.87;2.20;;;;;;;36.76;25.43;100242.12;1750276;80;20150;-70
2021/06/22 09:31:23;;;;;;;10.50;1.90;;;;;;;36.60;26.05;100221.09;1719480;81;21026;-69
2021/06/22 09:33:53;;;;;;;6.15;1.95;;;;;;;36.72;27.76;100222.27;1749082;80;21029;-68
2021/06/22 09:36:29;;;;;;;5.00;2.12;;;;;;;36.92;27.90;100213.48;1749299;80;21804;-69
2021/06/22 09:39:05;;;;;;;6.67;1.85;;;;;;;37.08;27.50;100218.83;1750188;80;20970;-72
2021/06/22 09:41:37;;;;;;;4.33;1.75;;;;;;;37.24;26.74;100220.83;1749126;80;20966;-63
2021/06/22 09:44:09;;;;;;;6.05;1.80;;;;;;;37.35;27.47;100222.36;1744526;80;21537;-71
2021/06/22 09:46:43;;;;;;;4.50;1.87;;;;;;;37.47;27.77;100216.19;1739246;80;21046;-68
2021/06/22 09:49:19;;;;;;;3.80;1.92;;;;;;;37.45;26.87;100224.48;1736671;80;21827;-63
2021/06/22 09:52:01;;;;;;;4.25;2.12;;;;;;;37.40;26.53;100210.61;1733408;80;21497;-71
2021/06/22 09:54:30;;;;;;;5.97;1.57;;;;;;;37.30;27.08;100209.08;1755578;80;21669;-68
2021/06/22 09:57:06;;;;;;;4.33;1.75;;;;;;;37.20;27.02;100196.33;1762223;80;20907;-66
2021/06/22 10:00:05;;;;;;;5.92;1.80;;;;;;;37.07;26.18;100198.23;1750961;80;21277;-68
2021/06/22 10:02:52;;;;;;;4.85;2.12;;;;;;;36.99;26.78;100208.98;1746152;80;21505;-68
2021/06/22 10:05:20;;;;;;;4.40;1.60;;;;;;;36.87;26.18;100198.86;1709637;80;21504;-67
2021/06/22 10:07:59;;;;;;;5.28;1.67;;;;;;;36.62;27.37;100192.41;1729600;81;21573;-67
2021/06/22 10:10:39;;;;;;;3.87;2.02;;;;;;;36.59;27.66;100194.47;1728222;81;20991;-68
2021/06/22 10:13:06;;;;;;;4.30;1.75;;;;;;;36.78;28.13;100197.72;1750489;80;21496;-67
2021/06/22 10:15:32;;;;;;;4.28;2.15;;;;;;;36.90;27.76;100192.13;1763241;80;21115;-65
2021/06/22 10:17:59;;;;;;;7.28;1.82;;;;;;;36.91;26.50;100195.63;1753811;80;22341;-64
2021/06/22 10:20:26;;;;;;;4.45;1.65;;;;;;;37.05;26.89;100189.66;1765142;80;21139;-67
2021/06/22 10:22:52;;;;;;;4.40;1.50;;;;;;;37.15;26.79;100182.25;1768508;80;21049;-66
2021/06/22 10:25:19;;;;;;;3.75;1.72;;;;;;;37.04;27.21;100182.66;1773602;80;20975;-66
2021/06/22 10:27:50;;;;;;;4.03;1.55;;;;;;;37.01;26.49;100192.31;1767772;80;21113;-70
2021/06/22 10:30:20;;;;;;;6.95;1.90;;;;;;;36.80;26.82;100190.01;1760387;80;21546;-62
2021/06/22 10:32:46;;;;;;;5.12;2.08;;;;;;;36.70;29.12;100177.02;1768805;80;20951;-68
2021/06/22 10:35:14;;;;;;;4.65;2.05;;;;;;;36.87;28.85;100180.63;1765571;80;20891;-62
2021/06/22 10:37:48;;;;;;;7.85;1.90;;;;;;;36.92;26.63;100195.83;1774003;80;21873;-67
2021/06/22 10:40:23;;;;;;;8.08;1.70;;;;;;;36.92;26.24;100180.31;1760360;80;21103;-66
2021/06/22 10:42:55;;;;;;;5.67;1.60;;;;;;;36.97;25.76;100191.47;1768570;80;21062;-67
2021/06/22 10:45:22;;;;;;;4.62;1.67;;;;;;;36.99;24.55;100181.03;1757874;80;21085;-68
2021/06/22 10:47:49;;;;;;;15.50;2.87;;;;;;;36.93;25.11;100180.52;1770105;80;20915;-67
2021/06/22 10:50:27;;;;;;;3.87;1.60;;;;;;;37.11;25.77;100188.20;1765666;80;20974;-70
2021/06/22 10:53:00;;;;;;;4.37;1.30;;;;;;;37.22;25.24;100189.94;1767546;80;22103;-65
2021/06/22 10:55:41;;;;;;;4.33;1.50;;;;;;;37.30;25.67;100177.24;1759378;80;20934;-68
2021/06/22 10:58:13;;;;;;;3.83;1.60;;;;;;;37.31;26.21;100176.66;1756097;80;20892;-69
2021/06/22 11:01:00;;;;;;;3.25;1.45;;;;;;;37.36;26.23;100170.35;1765392;80;21029;-68
2021/06/22 11:03:32;;;;;;;6.85;1.80;;;;;;;37.47;25.45;100164.52;1748912;80;21090;-72
2021/06/22 11:06:13;;;;;;;5.50;1.57;;;;;;;37.53;25.39;100173.71;1754892;79;21294;-64
2021/06/22 11:08:42;;;;;;;4.92;1.60;;;;;;;37.44;24.09;100175.34;1741559;82;20975;-69
2021/06/22 11:11:15;;;;;;;4.47;1.90;;;;;;;37.39;24.09;100164.73;1740498;80;20970;-65
2021/06/22 11:13:57;;;;;;;4.03;1.62;;;;;;;37.33;25.34;100170.30;1741528;80;21002;-67
2021/06/22 11:16:30;;;;;;;3.72;1.47;;;;;;;37.36;24.40;100157.34;1745335;80;21441;-72
2021/06/22 11:19:07;;;;;;;5.85;1.50;;;;;;;37.33;24.34;100165.64;1744309;80;20987;-67
2021/06/22 11:21:50;;;;;;;3.37;1.32;;;;;;;37.22;24.95;100167.41;1744217;80;21033;-70
2021/06/22 11:24:23;;;;;;;7.03;1.95;;;;;;;37.19;24.36;100152.61;1736946;80;20974;-68
2021/06/22 11:27:03;;;;;;;4.72;1.82;;;;;;;37.35;25.56;100161.19;1744760;80;21021;-71
2021/06/22 11:29:43;;;;;;;4.72;1.50;;;;;;;37.36;24.89;100160.83;1745456;80;21001;-69
2021/06/22 11:32:10;;;;;;;4.20;1.40;;;;;;;37.39;24.15;100163.38;1754214;80;21082;-70